sensor_id;sensor_type;location;lat;lon;timestamp;temperature;humidity
39585;DHT22;25278;53.674;10.014;2022-10-16T05:49:14;13.20;99.90
39585;DHT22;25278;53.674;10.014;2022-10-16T05:51:40;12.90;99.90
39585;DHT22;25278;53.674;10.014;2022-10-16T05:54:06;12.90;99.90
39585;DHT22;25278;53.674;10.014;2022-10-16T05:56:31;12.90;99.90
39585;DHT22;25278;53.674;10.014;2022-10-16T05:58:57;12.90;99.90
39585;DHT22;25278;53.674;10.014;2022-10-16T06:01:23;12.90;99.90
39585;DHT22;25278;53.674;10.014;2022-10-16T06:03:50;12.90;99.90
39585;DHT22;25278;53.674;10.014;2022-10-16T06:06:18;12.90;99.90
39585;DHT22;25278;53.674;10.014;2022-10-16T06:08:45;12.90;99.90
39585;DHT22;25278;53.674;10.014;2022-10-16T06:11:13;13.00;99.90
39585;DHT22;25278;53.674;10.014;2022-10-16T06:13:39;13.00;99.90
39585;DHT22;25278;53.674;10.014;2022-10-16T06:16:09;13.00;99.90
39585;DHT22;25278;53.674;10.014;2022-10-16T06:18:35;13.00;99.90
39585;DHT22;25278;53.674;10.014;2022-10-16T06:21:08;13.10;99.90
39585;DHT22;25278;53.674;10.014;2022-10-16T06:23:35;13.10;99.90
39585;DHT22;25278;53.674;10.014;2022-10-16T06:26:11;13.10;99.90
39585;DHT22;25278;53.674;10.014;2022-10-16T06:28:37;13.10;99.90
39585;DHT22;25278;53.674;10.014;2022-10-16T06:31:03;13.10;99.90
39585;DHT22;25278;53.674;10.014;2022-10-16T06:33:30;13.20;99.90
39585;DHT22;25278;53.674;10.014;2022-10-16T06:36:10;13.20;99.90
39585;DHT22;25278;53.674;10.014;2022-10-16T06:38:36;13.30;99.90
39585;DHT22;25278;53.674;10.014;2022-10-16T06:41:02;13.40;99.90
39585;DHT22;25278;53.674;10.014;2022-10-16T06:43:37;13.40;99.90
39585;DHT22;25278;53.674;10.014;2022-10-16T06:46:04;13.50;99.90
39585;DHT22;25278;53.674;10.014;2022-10-16T06:48:30;13.50;99.90
39585;DHT22;25278;53.674;10.014;2022-10-16T06:50:59;13.50;99.90
39585;DHT22;25278;53.674;10.014;2022-10-16T06:53:26;13.60;99.90
39585;DHT22;25278;53.674;10.014;2022-10-16T06:55:52;13.70;99.90
39585;DHT22;25278;53.674;10.014;2022-10-16T06:58:18;13.70;99.90
39585;DHT22;25278;53.674;10.014;2022-10-16T09:06:38;13.90;99.90
39585;DHT22;25278;53.674;10.014;2022-10-16T09:09:48;16.00;99.90
39585;DHT22;25278;53.674;10.014;2022-10-16T09:12:33;16.00;99.90
39585;DHT22;25278;53.674;10.014;2022-10-16T09:18:36;16.10;99.90
39585;DHT22;25278;53.674;10.014;2022-10-16T09:23:37;16.30;99.90
39585;DHT22;25278;53.674;10.014;2022-10-16T09:28:30;16.30;99.90
39585;DHT22;25278;53.674;10.014;2022-10-16T09:30:55;16.40;99.90
39585;DHT22;25278;53.674;10.014;2022-10-16T09:33:28;16.30;99.90
39585;DHT22;25278;53.674;10.014;2022-10-16T09:35:56;16.40;99.90
39585;DHT22;25278;53.674;10.014;2022-10-16T09:38:27;16.70;99.90
39585;DHT22;25278;53.674;10.014;2022-10-16T09:40:54;16.70;99.90
39585;DHT22;25278;53.674;10.014;2022-10-16T09:51:00;16.90;99.90
39585;DHT22;25278;53.674;10.014;2022-10-16T09:53:38;17.80;99.90
39585;DHT22;25278;53.674;10.014;2022-10-16T10:00:58;18.10;99.90
39585;DHT22;25278;53.674;10.014;2022-10-16T10:03:37;19.80;99.90
39585;DHT22;25278;53.674;10.014;2022-10-16T10:06:30;19.70;99.90
39585;DHT22;25278;53.674;10.014;2022-10-16T10:09:06;19.90;99.90
39585;DHT22;25278;53.674;10.014;2022-10-16T10:16:48;19.90;99.90
39585;DHT22;25278;53.674;10.014;2022-10-16T10:19:24;19.40;99.90
39585;DHT22;25278;53.674;10.014;2022-10-16T10:21:50;19.30;99.90
39585;DHT22;25278;53.674;10.014;2022-10-16T10:24:18;19.80;99.90
39585;DHT22;25278;53.674;10.014;2022-10-16T10:26:57;20.50;99.90
39585;DHT22;25278;53.674;10.014;2022-10-16T10:29:59;20.20;99.90
39585;DHT22;25278;53.674;10.014;2022-10-16T10:32:45;19.30;99.90
39585;DHT22;25278;53.674;10.014;2022-10-16T10:35:18;19.30;99.90
39585;DHT22;25278;53.674;10.014;2022-10-16T10:40:42;19.90;99.90
39585;DHT22;25278;53.674;10.014;2022-10-16T10:43:38;20.30;99.90
39585;DHT22;25278;53.674;10.014;2022-10-16T10:46:15;21.80;99.90
39585;DHT22;25278;53.674;10.014;2022-10-16T10:51:53;21.60;99.90
39585;DHT22;25278;53.674;10.014;2022-10-16T10:54:35;19.80;99.90
39585;DHT22;25278;53.674;10.014;2022-10-16T10:57:30;19.40;99.90
39585;DHT22;25278;53.674;10.014;2022-10-16T11:00:21;19.40;99.90
39585;DHT22;25278;53.674;10.014;2022-10-16T11:05:51;21.20;99.90
39585;DHT22;25278;53.674;10.014;2022-10-16T11:08:51;20.80;99.90
39585;DHT22;25278;53.674;10.014;2022-10-16T11:11:49;21.70;99.90
39585;DHT22;25278;53.674;10.014;2022-10-16T11:14:21;20.90;99.90
39585;DHT22;25278;53.674;10.014;2022-10-16T11:17:08;21.20;99.90
39585;DHT22;25278;53.674;10.014;2022-10-16T11:19:46;22.40;99.90
39585;DHT22;25278;53.674;10.014;2022-10-16T11:22:20;22.00;99.90
39585;DHT22;25278;53.674;10.014;2022-10-16T11:24:53;21.90;99.90
39585;DHT22;25278;53.674;10.014;2022-10-16T11:27:33;22.30;99.90
39585;DHT22;25278;53.674;10.014;2022-10-16T11:30:03;22.70;99.90
39585;DHT22;25278;53.674;10.014;2022-10-16T11:32:53;23.00;99.90
39585;DHT22;25278;53.674;10.014;2022-10-16T11:38:13;21.50;99.90
39585;DHT22;25278;53.674;10.014;2022-10-16T11:40:41;21.00;99.90
39585;DHT22;25278;53.674;10.014;2022-10-16T11:48:33;20.10;99.90
39585;DHT22;25278;53.674;10.014;2022-10-16T11:53:44;20.30;99.90
39585;DHT22;25278;53.674;10.014;2022-10-16T11:56:19;20.20;99.90
39585;DHT22;25278;53.674;10.014;2022-10-16T12:01:27;19.70;99.90
39585;DHT22;25278;53.674;10.014;2022-10-16T12:06:42;22.30;99.90
39585;DHT22;25278;53.674;10.014;2022-10-16T12:09:36;21.50;99.90
39585;DHT22;25278;53.674;10.014;2022-10-16T12:12:00;21.30;99.90
39585;DHT22;25278;53.674;10.014;2022-10-16T12:14:34;21.80;99.90
39585;DHT22;25278;53.674;10.014;2022-10-16T12:17:03;22.60;99.90
39585;DHT22;25278;53.674;10.014;2022-10-16T12:19:32;23.40;99.90
39585;DHT22;25278;53.674;10.014;2022-10-16T12:22:02;23.10;99.90
39585;DHT22;25278;53.674;10.014;2022-10-16T12:24:41;23.40;99.90
39585;DHT22;25278;53.674;10.014;2022-10-16T12:27:27;22.50;99.90
39585;DHT22;25278;53.674;10.014;2022-10-16T12:30:01;22.70;99.90
39585;DHT22;25278;53.674;10.014;2022-10-16T12:32:33;22.30;99.90
39585;DHT22;25278;53.674;10.014;2022-10-16T12:35:00;22.00;99.90
39585;DHT22;25278;53.674;10.014;2022-10-16T12:37:33;21.90;99.90
39585;DHT22;25278;53.674;10.014;2022-10-16T12:40:15;21.90;99.90
39585;DHT22;25278;53.674;10.014;2022-10-16T12:42:42;22.30;99.90
39585;DHT22;25278;53.674;10.014;2022-10-16T12:45:29;21.90;99.90
39585;DHT22;25278;53.674;10.014;2022-10-16T12:47:56;22.40;99.90
39585;DHT22;25278;53.674;10.014;2022-10-16T12:50:41;23.20;99.90
39585;DHT22;25278;53.674;10.014;2022-10-16T13:06:56;22.80;99.90
39585;DHT22;25278;53.674;10.014;2022-10-16T13:12:38;22.90;99.90
39585;DHT22;25278;53.674;10.014;2022-10-16T13:18:14;23.70;99.90
39585;DHT22;25278;53.674;10.014;2022-10-16T13:23:29;25.30;99.90
39585;DHT22;25278;53.674;10.014;2022-10-16T13:26:26;25.00;99.90
39585;DHT22;25278;53.674;10.014;2022-10-16T13:28:59;26.20;99.90
39585;DHT22;25278;53.674;10.014;2022-10-16T13:31:25;24.10;99.90
39585;DHT22;25278;53.674;10.014;2022-10-16T13:33:53;23.90;99.90
39585;DHT22;25278;53.674;10.014;2022-10-16T13:36:21;24.30;99.90
39585;DHT22;25278;53.674;10.014;2022-10-16T13:38:47;25.60;99.90
39585;DHT22;25278;53.674;10.014;2022-10-16T13:41:17;25.40;99.90
39585;DHT22;25278;53.674;10.014;2022-10-16T13:43:49;24.80;99.90
39585;DHT22;25278;53.674;10.014;2022-10-16T13:46:17;24.50;99.90
39585;DHT22;25278;53.674;10.014;2022-10-16T13:48:43;23.80;99.90
39585;DHT22;25278;53.674;10.014;2022-10-16T13:51:14;23.00;99.90
39585;DHT22;25278;53.674;10.014;2022-10-16T13:53:41;23.30;99.90
39585;DHT22;25278;53.674;10.014;2022-10-16T13:56:14;22.10;99.90
39585;DHT22;25278;53.674;10.014;2022-10-16T13:58:40;20.80;99.90
39585;DHT22;25278;53.674;10.014;2022-10-16T14:01:20;20.10;99.90
39585;DHT22;25278;53.674;10.014;2022-10-16T14:03:49;22.20;99.90
39585;DHT22;25278;53.674;10.014;2022-10-16T14:06:17;24.30;99.90
39585;DHT22;25278;53.674;10.014;2022-10-16T14:08:53;24.40;99.90
39585;DHT22;25278;53.674;10.014;2022-10-16T14:11:22;25.10;99.90
39585;DHT22;25278;53.674;10.014;2022-10-16T14:13:49;25.30;99.90
39585;DHT22;25278;53.674;10.014;2022-10-16T14:16:18;24.30;99.90
39585;DHT22;25278;53.674;10.014;2022-10-16T14:21:14;25.20;99.90
39585;DHT22;25278;53.674;10.014;2022-10-16T14:23:41;26.00;99.90
39585;DHT22;25278;53.674;10.014;2022-10-16T14:28:38;25.30;99.90
39585;DHT22;25278;53.674;10.014;2022-10-16T14:31:31;24.00;99.90
39585;DHT22;25278;53.674;10.014;2022-10-16T14:33:57;22.40;99.90
39585;DHT22;25278;53.674;10.014;2022-10-16T14:36:24;22.20;99.90
39585;DHT22;25278;53.674;10.014;2022-10-16T14:41:22;23.80;99.90
39585;DHT22;25278;53.674;10.014;2022-10-16T14:43:52;24.30;99.90
39585;DHT22;25278;53.674;10.014;2022-10-16T14:46:27;25.20;99.90
39585;DHT22;25278;53.674;10.014;2022-10-16T14:49:04;26.30;99.90
39585;DHT22;25278;53.674;10.014;2022-10-16T14:51:39;26.10;99.90
39585;DHT22;25278;53.674;10.014;2022-10-16T14:54:14;26.60;99.90
39585;DHT22;25278;53.674;10.014;2022-10-16T14:56:52;26.40;99.90
39585;DHT22;25278;53.674;10.014;2022-10-16T14:59:27;26.00;99.90
39585;DHT22;25278;53.674;10.014;2022-10-16T15:01:53;24.70;99.90
39585;DHT22;25278;53.674;10.014;2022-10-16T15:04:19;24.70;99.90
39585;DHT22;25278;53.674;10.014;2022-10-16T15:06:45;23.90;99.90
39585;DHT22;25278;53.674;10.014;2022-10-16T15:09:10;23.80;99.90
39585;DHT22;25278;53.674;10.014;2022-10-16T15:11:36;23.40;99.90
39585;DHT22;25278;53.674;10.014;2022-10-16T15:14:02;22.10;99.90
39585;DHT22;25278;53.674;10.014;2022-10-16T15:18:55;21.20;99.90
39585;DHT22;25278;53.674;10.014;2022-10-16T15:21:25;19.20;99.90
39585;DHT22;25278;53.674;10.014;2022-10-16T15:23:52;18.80;99.90
39585;DHT22;25278;53.674;10.014;2022-10-16T15:26:17;18.60;99.90
39585;DHT22;25278;53.674;10.014;2022-10-16T15:28:43;18.40;99.90
39585;DHT22;25278;53.674;10.014;2022-10-16T15:31:08;18.20;99.90
39585;DHT22;25278;53.674;10.014;2022-10-16T15:33:34;18.10;99.90
39585;DHT22;25278;53.674;10.014;2022-10-16T15:36:01;17.80;99.90
39585;DHT22;25278;53.674;10.014;2022-10-16T15:38:28;17.80;99.90
39585;DHT22;25278;53.674;10.014;2022-10-16T15:40:54;17.70;99.90
39585;DHT22;25278;53.674;10.014;2022-10-16T15:43:19;17.70;99.90
39585;DHT22;25278;53.674;10.014;2022-10-16T15:45:59;17.60;99.90
39585;DHT22;25278;53.674;10.014;2022-10-16T15:48:25;17.50;99.90
39585;DHT22;25278;53.674;10.014;2022-10-16T15:50:51;17.30;99.90
39585;DHT22;25278;53.674;10.014;2022-10-16T15:53:16;17.20;99.90
39585;DHT22;25278;53.674;10.014;2022-10-16T15:55:42;17.10;99.90
39585;DHT22;25278;53.674;10.014;2022-10-16T15:58:07;16.80;99.90
39585;DHT22;25278;53.674;10.014;2022-10-16T16:00:33;16.70;99.90
39585;DHT22;25278;53.674;10.014;2022-10-16T16:02:58;16.60;99.90
39585;DHT22;25278;53.674;10.014;2022-10-16T16:05:24;16.60;99.90
39585;DHT22;25278;53.674;10.014;2022-10-16T16:07:50;16.60;99.90
39585;DHT22;25278;53.674;10.014;2022-10-16T16:10:16;16.50;99.90
39585;DHT22;25278;53.674;10.014;2022-10-16T16:12:42;16.40;99.90
39585;DHT22;25278;53.674;10.014;2022-10-16T16:27:19;16.10;99.90
39585;DHT22;25278;53.674;10.014;2022-10-16T16:29:46;15.50;99.90
39585;DHT22;25278;53.674;10.014;2022-10-16T16:32:12;15.50;99.90
39585;DHT22;25278;53.674;10.014;2022-10-16T16:34:37;15.30;99.90
39585;DHT22;25278;53.674;10.014;2022-10-16T16:37:03;15.20;99.90
39585;DHT22;25278;53.674;10.014;2022-10-16T16:39:28;15.30;99.90
39585;DHT22;25278;53.674;10.014;2022-10-16T16:41:56;15.20;99.90
39585;DHT22;25278;53.674;10.014;2022-10-16T16:44:21;15.10;99.90
39585;DHT22;25278;53.674;10.014;2022-10-16T16:46:47;15.00;99.90
39585;DHT22;25278;53.674;10.014;2022-10-16T16:49:13;15.00;99.90
39585;DHT22;25278;53.674;10.014;2022-10-16T16:51:39;15.00;99.90
39585;DHT22;25278;53.674;10.014;2022-10-16T16:54:05;14.90;99.90
39585;DHT22;25278;53.674;10.014;2022-10-16T16:56:33;14.90;99.90
39585;DHT22;25278;53.674;10.014;2022-10-16T16:58:59;15.00;99.90
39585;DHT22;25278;53.674;10.014;2022-10-16T17:01:26;14.90;99.90
39585;DHT22;25278;53.674;10.014;2022-10-16T17:03:53;14.80;99.90
39585;DHT22;25278;53.674;10.014;2022-10-16T17:06:21;14.50;99.90
39585;DHT22;25278;53.674;10.014;2022-10-16T17:08:48;14.50;99.90
39585;DHT22;25278;53.674;10.014;2022-10-16T17:11:19;14.30;99.90
39585;DHT22;25278;53.674;10.014;2022-10-16T17:30:53;14.20;99.90
39585;DHT22;25278;53.674;10.014;2022-10-16T17:33:19;13.60;99.90
39585;DHT22;25278;53.674;10.014;2022-10-16T17:35:46;13.40;99.90
39585;DHT22;25278;53.674;10.014;2022-10-16T17:38:13;13.30;99.90
39585;DHT22;25278;53.674;10.014;2022-10-16T17:40:39;13.20;99.90
39585;DHT22;25278;53.674;10.014;2022-10-16T17:43:05;13.20;99.90
39585;DHT22;25278;53.674;10.014;2022-10-16T19:23:28;13.20;99.90
39585;DHT22;25278;53.674;10.014;2022-10-16T19:25:53;11.20;99.90
39585;DHT22;25278;53.674;10.014;2022-10-16T19:28:19;11.10;99.90
39585;DHT22;25278;53.674;10.014;2022-10-16T19:30:44;11.20;99.90
39585;DHT22;25278;53.674;10.014;2022-10-16T19:33:11;11.10;99.90
39585;DHT22;25278;53.674;10.014;2022-10-16T19:35:37;11.20;99.90
39585;DHT22;25278;53.674;10.014;2022-10-16T19:38:02;11.20;99.90
39585;DHT22;25278;53.674;10.014;2022-10-16T19:40:28;11.20;99.90
39585;DHT22;25278;53.674;10.014;2022-10-16T19:42:54;11.20;99.90
39585;DHT22;25278;53.674;10.014;2022-10-16T19:45:20;11.20;99.90
39585;DHT22;25278;53.674;10.014;2022-10-16T19:47:46;11.20;99.90
39585;DHT22;25278;53.674;10.014;2022-10-16T19:50:12;11.30;99.90
39585;DHT22;25278;53.674;10.014;2022-10-16T19:52:40;11.20;99.90
39585;DHT22;25278;53.674;10.014;2022-10-16T19:55:06;11.10;99.90
39585;DHT22;25278;53.674;10.014;2022-10-16T19:57:33;11.20;99.90
39585;DHT22;25278;53.674;10.014;2022-10-16T19:59:59;11.20;99.90
39585;DHT22;25278;53.674;10.014;2022-10-16T20:02:25;11.20;99.90
39585;DHT22;25278;53.674;10.014;2022-10-16T20:04:50;11.20;99.90
39585;DHT22;25278;53.674;10.014;2022-10-16T20:07:16;11.20;99.90
39585;DHT22;25278;53.674;10.014;2022-10-16T20:09:41;11.20;99.90
39585;DHT22;25278;53.674;10.014;2022-10-16T20:12:07;11.20;99.90
39585;DHT22;25278;53.674;10.014;2022-10-16T20:14:33;11.20;99.90
39585;DHT22;25278;53.674;10.014;2022-10-16T20:16:59;11.10;99.90
39585;DHT22;25278;53.674;10.014;2022-10-16T20:19:25;11.10;99.90
39585;DHT22;25278;53.674;10.014;2022-10-16T20:21:51;11.10;99.90
39585;DHT22;25278;53.674;10.014;2022-10-16T20:24:16;11.20;99.90
